sensor_id;sensor_type;location;lat;lon;timestamp;P1;durP1;ratioP1;P2;durP2;ratioP2
77430;SDS011;66498;48.564;19.272;2023-04-06T00:02:11;33.03;;;17.50;;
77430;SDS011;66498;48.564;19.272;2023-04-06T00:04:39;28.08;;;17.17;;
77430;SDS011;66498;48.564;19.272;2023-04-06T00:07:07;28.92;;;16.85;;
77430;SDS011;66498;48.564;19.272;2023-04-06T00:09:34;28.85;;;16.52;;
77430;SDS011;66498;48.564;19.272;2023-04-06T00:12:03;32.42;;;18.52;;
77430;SDS011;66498;48.564;19.272;2023-04-06T00:14:29;28.35;;;16.35;;
77430;SDS011;66498;48.564;19.272;2023-04-06T00:16:55;26.50;;;14.75;;
77430;SDS011;66498;48.564;19.272;2023-04-06T00:19:21;24.00;;;13.05;;
77430;SDS011;66498;48.564;19.272;2023-04-06T00:21:46;23.08;;;11.32;;
77430;SDS011;66498;48.564;19.272;2023-04-06T00:24:12;21.50;;;12.27;;
77430;SDS011;66498;48.564;19.272;2023-04-06T00:26:37;23.27;;;13.10;;
77430;SDS011;66498;48.564;19.272;2023-04-06T00:29:03;27.13;;;15.50;;
77430;SDS011;66498;48.564;19.272;2023-04-06T00:31:29;29.20;;;16.15;;
77430;SDS011;66498;48.564;19.272;2023-04-06T00:33:54;27.25;;;15.80;;
77430;SDS011;66498;48.564;19.272;2023-04-06T00:36:20;27.42;;;14.88;;
77430;SDS011;66498;48.564;19.272;2023-04-06T00:38:45;32.30;;;16.92;;
77430;SDS011;66498;48.564;19.272;2023-04-06T00:41:12;33.28;;;17.15;;
77430;SDS011;66498;48.564;19.272;2023-04-06T00:43:38;31.25;;;16.98;;
77430;SDS011;66498;48.564;19.272;2023-04-06T00:46:04;32.22;;;16.95;;
77430;SDS011;66498;48.564;19.272;2023-04-06T00:48:30;29.65;;;16.42;;
77430;SDS011;66498;48.564;19.272;2023-04-06T00:50:57;30.58;;;16.83;;
77430;SDS011;66498;48.564;19.272;2023-04-06T00:53:23;30.00;;;17.02;;
77430;SDS011;66498;48.564;19.272;2023-04-06T00:55:48;30.48;;;16.38;;
77430;SDS011;66498;48.564;19.272;2023-04-06T00:58:15;28.13;;;16.42;;
77430;SDS011;66498;48.564;19.272;2023-04-06T01:00:41;33.60;;;16.95;;
77430;SDS011;66498;48.564;19.272;2023-04-06T01:03:07;27.52;;;16.45;;
77430;SDS011;66498;48.564;19.272;2023-04-06T01:05:33;33.95;;;16.83;;
77430;SDS011;66498;48.564;19.272;2023-04-06T01:08:04;30.45;;;17.42;;
77430;SDS011;66498;48.564;19.272;2023-04-06T01:10:31;31.35;;;17.33;;
77430;SDS011;66498;48.564;19.272;2023-04-06T01:12:57;37.05;;;18.42;;
77430;SDS011;66498;48.564;19.272;2023-04-06T01:15:23;34.78;;;18.55;;
77430;SDS011;66498;48.564;19.272;2023-04-06T01:17:52;34.47;;;17.90;;
77430;SDS011;66498;48.564;19.272;2023-04-06T01:20:18;35.60;;;19.17;;
77430;SDS011;66498;48.564;19.272;2023-04-06T01:22:45;37.97;;;18.63;;
77430;SDS011;66498;48.564;19.272;2023-04-06T01:25:10;37.47;;;18.17;;
77430;SDS011;66498;48.564;19.272;2023-04-06T01:27:36;33.63;;;17.02;;
77430;SDS011;66498;48.564;19.272;2023-04-06T01:30:01;33.20;;;17.13;;
77430;SDS011;66498;48.564;19.272;2023-04-06T01:32:27;29.93;;;16.93;;
77430;SDS011;66498;48.564;19.272;2023-04-06T01:34:55;30.58;;;16.33;;
77430;SDS011;66498;48.564;19.272;2023-04-06T01:37:21;32.97;;;17.37;;
77430;SDS011;66498;48.564;19.272;2023-04-06T01:39:47;30.33;;;16.53;;
77430;SDS011;66498;48.564;19.272;2023-04-06T01:42:12;28.77;;;15.93;;
77430;SDS011;66498;48.564;19.272;2023-04-06T01:44:38;26.83;;;14.77;;
77430;SDS011;66498;48.564;19.272;2023-04-06T01:47:03;27.93;;;16.13;;
77430;SDS011;66498;48.564;19.272;2023-04-06T01:49:29;26.67;;;15.48;;
77430;SDS011;66498;48.564;19.272;2023-04-06T01:51:55;27.40;;;16.03;;
77430;SDS011;66498;48.564;19.272;2023-04-06T01:54:20;27.77;;;15.75;;
77430;SDS011;66498;48.564;19.272;2023-04-06T01:56:46;29.80;;;15.87;;
77430;SDS011;66498;48.564;19.272;2023-04-06T01:59:12;31.93;;;16.80;;
77430;SDS011;66498;48.564;19.272;2023-04-06T02:01:37;30.87;;;17.50;;
77430;SDS011;66498;48.564;19.272;2023-04-06T02:04:03;30.53;;;17.00;;
77430;SDS011;66498;48.564;19.272;2023-04-06T02:06:28;34.20;;;18.17;;
77430;SDS011;66498;48.564;19.272;2023-04-06T02:08:55;34.40;;;18.33;;
77430;SDS011;66498;48.564;19.272;2023-04-06T02:11:20;30.35;;;17.83;;
77430;SDS011;66498;48.564;19.272;2023-04-06T02:13:46;28.50;;;17.80;;
77430;SDS011;66498;48.564;19.272;2023-04-06T02:16:13;33.88;;;17.98;;
77430;SDS011;66498;48.564;19.272;2023-04-06T02:18:39;32.57;;;18.17;;
77430;SDS011;66498;48.564;19.272;2023-04-06T02:21:05;33.57;;;18.07;;
77430;SDS011;66498;48.564;19.272;2023-04-06T02:23:31;30.40;;;17.70;;
77430;SDS011;66498;48.564;19.272;2023-04-06T02:25:56;33.35;;;18.42;;
77430;SDS011;66498;48.564;19.272;2023-04-06T02:28:22;38.33;;;19.20;;
77430;SDS011;66498;48.564;19.272;2023-04-06T02:30:47;32.13;;;18.17;;
77430;SDS011;66498;48.564;19.272;2023-04-06T02:33:13;33.37;;;18.70;;
77430;SDS011;66498;48.564;19.272;2023-04-06T02:35:38;33.22;;;18.73;;
77430;SDS011;66498;48.564;19.272;2023-04-06T02:38:08;28.50;;;17.33;;
77430;SDS011;66498;48.564;19.272;2023-04-06T02:40:34;36.30;;;17.65;;
77430;SDS011;66498;48.564;19.272;2023-04-06T02:42:59;31.07;;;16.87;;
77430;SDS011;66498;48.564;19.272;2023-04-06T02:45:26;32.27;;;17.50;;
77430;SDS011;66498;48.564;19.272;2023-04-06T02:47:52;31.95;;;17.85;;
77430;SDS011;66498;48.564;19.272;2023-04-06T02:50:17;32.00;;;18.25;;
77430;SDS011;66498;48.564;19.272;2023-04-06T02:52:43;32.03;;;17.23;;
77430;SDS011;66498;48.564;19.272;2023-04-06T02:55:08;30.13;;;17.73;;
77430;SDS011;66498;48.564;19.272;2023-04-06T02:57:34;30.67;;;16.97;;
77430;SDS011;66498;48.564;19.272;2023-04-06T03:00:00;33.43;;;17.63;;
77430;SDS011;66498;48.564;19.272;2023-04-06T03:02:25;29.27;;;16.67;;
77430;SDS011;66498;48.564;19.272;2023-04-06T03:04:51;32.47;;;18.40;;
77430;SDS011;66498;48.564;19.272;2023-04-06T03:07:16;30.33;;;17.63;;
77430;SDS011;66498;48.564;19.272;2023-04-06T03:09:42;31.23;;;17.63;;
77430;SDS011;66498;48.564;19.272;2023-04-06T03:12:07;33.33;;;18.33;;
77430;SDS011;66498;48.564;19.272;2023-04-06T03:14:33;34.47;;;18.07;;
77430;SDS011;66498;48.564;19.272;2023-04-06T03:16:58;38.70;;;19.30;;
77430;SDS011;66498;48.564;19.272;2023-04-06T03:19:24;33.87;;;19.03;;
77430;SDS011;66498;48.564;19.272;2023-04-06T03:21:49;37.60;;;18.75;;
77430;SDS011;66498;48.564;19.272;2023-04-06T03:24:15;35.93;;;17.97;;
77430;SDS011;66498;48.564;19.272;2023-04-06T03:26:40;34.43;;;18.40;;
77430;SDS011;66498;48.564;19.272;2023-04-06T03:29:06;35.30;;;18.53;;
77430;SDS011;66498;48.564;19.272;2023-04-06T03:31:31;35.80;;;17.80;;
77430;SDS011;66498;48.564;19.272;2023-04-06T03:33:57;33.40;;;17.97;;
77430;SDS011;66498;48.564;19.272;2023-04-06T03:36:24;33.90;;;18.47;;
77430;SDS011;66498;48.564;19.272;2023-04-06T03:38:50;33.00;;;18.60;;
77430;SDS011;66498;48.564;19.272;2023-04-06T03:41:15;31.33;;;17.70;;
77430;SDS011;66498;48.564;19.272;2023-04-06T03:43:41;36.00;;;19.23;;
77430;SDS011;66498;48.564;19.272;2023-04-06T03:46:06;30.20;;;17.60;;
77430;SDS011;66498;48.564;19.272;2023-04-06T03:48:32;29.00;;;16.57;;
77430;SDS011;66498;48.564;19.272;2023-04-06T03:50:57;30.60;;;16.70;;
77430;SDS011;66498;48.564;19.272;2023-04-06T03:53:23;33.97;;;17.07;;
77430;SDS011;66498;48.564;19.272;2023-04-06T03:55:48;32.37;;;17.73;;
77430;SDS011;66498;48.564;19.272;2023-04-06T03:58:14;31.53;;;17.37;;
77430;SDS011;66498;48.564;19.272;2023-04-06T04:00:39;31.23;;;17.03;;
77430;SDS011;66498;48.564;19.272;2023-04-06T04:03:05;31.20;;;16.97;;
77430;SDS011;66498;48.564;19.272;2023-04-06T04:05:30;36.20;;;17.83;;
77430;SDS011;66498;48.564;19.272;2023-04-06T04:07:56;35.00;;;18.27;;
77430;SDS011;66498;48.564;19.272;2023-04-06T04:10:21;31.57;;;17.70;;
77430;SDS011;66498;48.564;19.272;2023-04-06T04:12:47;36.77;;;17.17;;
77430;SDS011;66498;48.564;19.272;2023-04-06T04:15:12;31.03;;;17.50;;
77430;SDS011;66498;48.564;19.272;2023-04-06T04:17:38;33.23;;;17.67;;
77430;SDS011;66498;48.564;19.272;2023-04-06T04:20:03;33.53;;;18.57;;
77430;SDS011;66498;48.564;19.272;2023-04-06T04:22:29;34.33;;;18.63;;
77430;SDS011;66498;48.564;19.272;2023-04-06T04:24:55;37.37;;;18.63;;
77430;SDS011;66498;48.564;19.272;2023-04-06T04:27:20;31.37;;;17.83;;
77430;SDS011;66498;48.564;19.272;2023-04-06T04:29:46;29.43;;;17.00;;
77430;SDS011;66498;48.564;19.272;2023-04-06T04:32:12;33.90;;;17.80;;
77430;SDS011;66498;48.564;19.272;2023-04-06T04:34:37;27.50;;;16.73;;
77430;SDS011;66498;48.564;19.272;2023-04-06T04:37:06;29.67;;;17.33;;
77430;SDS011;66498;48.564;19.272;2023-04-06T04:39:32;35.37;;;21.27;;
77430;SDS011;66498;48.564;19.272;2023-04-06T04:41:57;32.23;;;17.97;;
77430;SDS011;66498;48.564;19.272;2023-04-06T04:44:23;30.47;;;17.13;;
77430;SDS011;66498;48.564;19.272;2023-04-06T04:46:48;31.20;;;17.33;;
77430;SDS011;66498;48.564;19.272;2023-04-06T04:49:14;31.97;;;17.73;;
77430;SDS011;66498;48.564;19.272;2023-04-06T04:51:39;30.40;;;16.80;;
77430;SDS011;66498;48.564;19.272;2023-04-06T04:54:05;29.90;;;16.03;;
77430;SDS011;66498;48.564;19.272;2023-04-06T04:56:30;28.73;;;16.90;;
77430;SDS011;66498;48.564;19.272;2023-04-06T04:58:56;33.93;;;17.77;;
77430;SDS011;66498;48.564;19.272;2023-04-06T05:01:22;31.50;;;17.77;;
77430;SDS011;66498;48.564;19.272;2023-04-06T05:03:47;29.40;;;17.30;;
77430;SDS011;66498;48.564;19.272;2023-04-06T05:06:12;30.13;;;17.73;;
77430;SDS011;66498;48.564;19.272;2023-04-06T05:08:38;31.13;;;16.97;;
77430;SDS011;66498;48.564;19.272;2023-04-06T05:11:03;34.43;;;17.27;;
77430;SDS011;66498;48.564;19.272;2023-04-06T05:13:29;31.57;;;16.67;;
77430;SDS011;66498;48.564;19.272;2023-04-06T05:15:56;30.20;;;16.10;;
77430;SDS011;66498;48.564;19.272;2023-04-06T05:18:21;31.83;;;18.45;;
77430;SDS011;66498;48.564;19.272;2023-04-06T05:20:47;34.87;;;19.73;;
77430;SDS011;66498;48.564;19.272;2023-04-06T05:23:12;38.77;;;19.80;;
77430;SDS011;66498;48.564;19.272;2023-04-06T05:25:38;34.67;;;20.30;;
77430;SDS011;66498;48.564;19.272;2023-04-06T05:28:03;37.60;;;19.70;;
77430;SDS011;66498;48.564;19.272;2023-04-06T05:30:29;34.87;;;19.67;;
77430;SDS011;66498;48.564;19.272;2023-04-06T05:32:55;37.13;;;19.63;;
77430;SDS011;66498;48.564;19.272;2023-04-06T05:35:20;33.97;;;19.27;;
77430;SDS011;66498;48.564;19.272;2023-04-06T05:37:46;33.40;;;19.13;;
77430;SDS011;66498;48.564;19.272;2023-04-06T05:40:11;31.53;;;18.40;;
77430;SDS011;66498;48.564;19.272;2023-04-06T05:42:40;33.73;;;19.57;;
77430;SDS011;66498;48.564;19.272;2023-04-06T05:45:07;32.38;;;18.60;;
77430;SDS011;66498;48.564;19.272;2023-04-06T05:47:34;32.93;;;18.30;;
77430;SDS011;66498;48.564;19.272;2023-04-06T05:50:00;34.47;;;18.77;;
77430;SDS011;66498;48.564;19.272;2023-04-06T05:52:25;34.17;;;19.27;;
77430;SDS011;66498;48.564;19.272;2023-04-06T05:54:51;35.53;;;19.13;;
77430;SDS011;66498;48.564;19.272;2023-04-06T05:57:17;37.53;;;20.85;;
77430;SDS011;66498;48.564;19.272;2023-04-06T05:59:43;43.83;;;23.75;;
77430;SDS011;66498;48.564;19.272;2023-04-06T06:02:08;42.35;;;23.58;;
77430;SDS011;66498;48.564;19.272;2023-04-06T06:04:34;37.95;;;22.67;;
77430;SDS011;66498;48.564;19.272;2023-04-06T06:07:00;34.42;;;19.80;;
77430;SDS011;66498;48.564;19.272;2023-04-06T06:09:26;35.20;;;20.02;;
77430;SDS011;66498;48.564;19.272;2023-04-06T06:11:51;32.15;;;18.90;;
77430;SDS011;66498;48.564;19.272;2023-04-06T06:14:17;32.17;;;18.92;;
77430;SDS011;66498;48.564;19.272;2023-04-06T06:16:42;30.70;;;18.80;;
77430;SDS011;66498;48.564;19.272;2023-04-06T06:19:08;28.92;;;17.33;;
77430;SDS011;66498;48.564;19.272;2023-04-06T06:21:33;35.00;;;18.05;;
77430;SDS011;66498;48.564;19.272;2023-04-06T06:23:59;29.85;;;17.60;;
77430;SDS011;66498;48.564;19.272;2023-04-06T06:26:25;31.63;;;19.13;;
77430;SDS011;66498;48.564;19.272;2023-04-06T06:28:51;31.13;;;18.70;;
77430;SDS011;66498;48.564;19.272;2023-04-06T06:31:16;30.40;;;18.67;;
77430;SDS011;66498;48.564;19.272;2023-04-06T06:33:43;29.88;;;17.33;;
77430;SDS011;66498;48.564;19.272;2023-04-06T06:36:09;27.73;;;17.70;;
77430;SDS011;66498;48.564;19.272;2023-04-06T06:38:34;31.20;;;17.15;;
77430;SDS011;66498;48.564;19.272;2023-04-06T06:41:00;31.77;;;18.80;;
77430;SDS011;66498;48.564;19.272;2023-04-06T06:43:25;31.13;;;19.63;;
77430;SDS011;66498;48.564;19.272;2023-04-06T06:45:51;32.80;;;20.35;;
77430;SDS011;66498;48.564;19.272;2023-04-06T06:48:17;39.95;;;20.67;;
77430;SDS011;66498;48.564;19.272;2023-04-06T06:50:42;31.10;;;18.38;;
77430;SDS011;66498;48.564;19.272;2023-04-06T06:53:08;31.38;;;20.23;;
77430;SDS011;66498;48.564;19.272;2023-04-06T06:55:33;35.78;;;18.73;;
77430;SDS011;66498;48.564;19.272;2023-04-06T06:57:59;28.50;;;17.45;;
77430;SDS011;66498;48.564;19.272;2023-04-06T07:00:24;31.65;;;19.45;;
77430;SDS011;66498;48.564;19.272;2023-04-06T07:02:50;29.50;;;18.10;;
77430;SDS011;66498;48.564;19.272;2023-04-06T07:05:17;30.25;;;17.10;;
77430;SDS011;66498;48.564;19.272;2023-04-06T07:07:43;29.17;;;16.98;;
77430;SDS011;66498;48.564;19.272;2023-04-06T07:10:08;28.45;;;16.13;;
77430;SDS011;66498;48.564;19.272;2023-04-06T07:12:34;27.58;;;16.13;;
77430;SDS011;66498;48.564;19.272;2023-04-06T07:15:00;27.17;;;16.58;;
77430;SDS011;66498;48.564;19.272;2023-04-06T07:17:26;25.40;;;15.63;;
77430;SDS011;66498;48.564;19.272;2023-04-06T07:19:51;24.70;;;15.52;;
77430;SDS011;66498;48.564;19.272;2023-04-06T07:22:17;25.27;;;15.68;;
77430;SDS011;66498;48.564;19.272;2023-04-06T07:24:43;25.65;;;16.40;;
77430;SDS011;66498;48.564;19.272;2023-04-06T07:27:08;21.38;;;14.07;;
77430;SDS011;66498;48.564;19.272;2023-04-06T07:29:34;25.80;;;16.58;;
77430;SDS011;66498;48.564;19.272;2023-04-06T07:32:00;26.95;;;16.38;;
77430;SDS011;66498;48.564;19.272;2023-04-06T07:34:26;25.27;;;14.60;;
77430;SDS011;66498;48.564;19.272;2023-04-06T07:36:51;23.42;;;13.60;;
77430;SDS011;66498;48.564;19.272;2023-04-06T07:39:18;24.45;;;15.15;;
77430;SDS011;66498;48.564;19.272;2023-04-06T07:41:44;24.40;;;14.30;;
77430;SDS011;66498;48.564;19.272;2023-04-06T07:44:10;20.35;;;13.30;;
77430;SDS011;66498;48.564;19.272;2023-04-06T07:46:36;20.92;;;13.65;;
77430;SDS011;66498;48.564;19.272;2023-04-06T07:49:01;23.85;;;14.60;;
77430;SDS011;66498;48.564;19.272;2023-04-06T07:51:27;21.13;;;12.85;;
77430;SDS011;66498;48.564;19.272;2023-04-06T07:53:53;19.45;;;13.43;;
77430;SDS011;66498;48.564;19.272;2023-04-06T07:56:19;21.80;;;13.02;;
77430;SDS011;66498;48.564;19.272;2023-04-06T07:58:46;16.98;;;11.18;;
77430;SDS011;66498;48.564;19.272;2023-04-06T08:01:11;17.58;;;10.60;;
77430;SDS011;66498;48.564;19.272;2023-04-06T08:03:37;16.92;;;10.55;;
77430;SDS011;66498;48.564;19.272;2023-04-06T08:06:02;17.95;;;10.68;;
77430;SDS011;66498;48.564;19.272;2023-04-06T08:08:28;15.73;;;9.20;;
77430;SDS011;66498;48.564;19.272;2023-04-06T08:10:54;19.02;;;9.48;;
77430;SDS011;66498;48.564;19.272;2023-04-06T08:13:20;19.13;;;11.20;;
77430;SDS011;66498;48.564;19.272;2023-04-06T08:15:46;15.05;;;10.30;;
77430;SDS011;66498;48.564;19.272;2023-04-06T08:18:12;16.75;;;9.95;;
77430;SDS011;66498;48.564;19.272;2023-04-06T08:20:37;15.50;;;10.35;;
77430;SDS011;66498;48.564;19.272;2023-04-06T08:23:04;16.73;;;10.82;;
77430;SDS011;66498;48.564;19.272;2023-04-06T08:25:30;16.67;;;10.05;;
77430;SDS011;66498;48.564;19.272;2023-04-06T08:27:55;14.13;;;8.80;;
77430;SDS011;66498;48.564;19.272;2023-04-06T08:30:21;14.75;;;9.93;;
77430;SDS011;66498;48.564;19.272;2023-04-06T08:32:47;15.75;;;9.95;;
77430;SDS011;66498;48.564;19.272;2023-04-06T08:35:13;15.13;;;9.70;;
77430;SDS011;66498;48.564;19.272;2023-04-06T08:37:38;15.18;;;8.88;;
77430;SDS011;66498;48.564;19.272;2023-04-06T08:40:04;14.45;;;8.00;;
77430;SDS011;66498;48.564;19.272;2023-04-06T08:42:33;16.75;;;9.70;;
77430;SDS011;66498;48.564;19.272;2023-04-06T08:45:05;13.43;;;9.27;;
77430;SDS011;66498;48.564;19.272;2023-04-06T08:47:32;16.60;;;9.73;;
77430;SDS011;66498;48.564;19.272;2023-04-06T08:49:59;20.85;;;11.07;;
77430;SDS011;66498;48.564;19.272;2023-04-06T08:52:31;15.73;;;8.48;;
77430;SDS011;66498;48.564;19.272;2023-04-06T08:54:58;17.00;;;10.48;;
77430;SDS011;66498;48.564;19.272;2023-04-06T08:57:24;15.80;;;9.65;;
77430;SDS011;66498;48.564;19.272;2023-04-06T08:59:51;13.82;;;9.00;;
77430;SDS011;66498;48.564;19.272;2023-04-06T09:02:19;13.63;;;9.38;;
77430;SDS011;66498;48.564;19.272;2023-04-06T09:04:47;17.17;;;9.50;;
77430;SDS011;66498;48.564;19.272;2023-04-06T09:07:15;14.30;;;9.30;;
77430;SDS011;66498;48.564;19.272;2023-04-06T09:09:41;13.82;;;9.18;;
77430;SDS011;66498;48.564;19.272;2023-04-06T09:12:22;15.48;;;9.40;;
77430;SDS011;66498;48.564;19.272;2023-04-06T09:14:52;10.93;;;7.82;;
77430;SDS011;66498;48.564;19.272;2023-04-06T09:17:26;13.38;;;8.05;;
77430;SDS011;66498;48.564;19.272;2023-04-06T09:19:53;11.50;;;7.93;;
77430;SDS011;66498;48.564;19.272;2023-04-06T09:22:20;13.18;;;8.35;;
77430;SDS011;66498;48.564;19.272;2023-04-06T09:24:46;12.57;;;8.68;;
77430;SDS011;66498;48.564;19.272;2023-04-06T09:27:13;10.23;;;6.82;;
77430;SDS011;66498;48.564;19.272;2023-04-06T09:29:40;10.90;;;7.35;;
77430;SDS011;66498;48.564;19.272;2023-04-06T09:32:07;10.80;;;6.78;;
77430;SDS011;66498;48.564;19.272;2023-04-06T09:34:39;10.68;;;7.50;;
77430;SDS011;66498;48.564;19.272;2023-04-06T09:37:17;13.65;;;7.38;;
77430;SDS011;66498;48.564;19.272;2023-04-06T09:39:44;9.90;;;6.55;;
77430;SDS011;66498;48.564;19.272;2023-04-06T09:42:26;10.00;;;6.43;;
77430;SDS011;66498;48.564;19.272;2023-04-06T09:44:52;8.40;;;5.30;;
77430;SDS011;66498;48.564;19.272;2023-04-06T09:47:17;8.88;;;4.20;;
77430;SDS011;66498;48.564;19.272;2023-04-06T09:49:44;9.27;;;5.88;;
77430;SDS011;66498;48.564;19.272;2023-04-06T09:52:12;8.57;;;5.28;;
77430;SDS011;66498;48.564;19.272;2023-04-06T09:54:39;10.30;;;5.40;;
77430;SDS011;66498;48.564;19.272;2023-04-06T09:57:24;7.88;;;5.47;;
77430;SDS011;66498;48.564;19.272;2023-04-06T10:00:06;7.60;;;5.65;;
77430;SDS011;66498;48.564;19.272;2023-04-06T10:05:17;8.57;;;6.10;;
77430;SDS011;66498;48.564;19.272;2023-04-06T10:07:50;8.52;;;5.00;;
77430;SDS011;66498;48.564;19.272;2023-04-06T10:10:18;8.70;;;4.65;;
77430;SDS011;66498;48.564;19.272;2023-04-06T10:12:45;10.70;;;5.50;;
77430;SDS011;66498;48.564;19.272;2023-04-06T10:15:12;7.15;;;3.75;;
77430;SDS011;66498;48.564;19.272;2023-04-06T10:17:38;5.78;;;3.65;;
77430;SDS011;66498;48.564;19.272;2023-04-06T10:20:06;7.70;;;4.40;;
77430;SDS011;66498;48.564;19.272;2023-04-06T10:22:36;10.07;;;4.55;;
77430;SDS011;66498;48.564;19.272;2023-04-06T10:25:08;7.00;;;3.50;;
77430;SDS011;66498;48.564;19.272;2023-04-06T10:27:34;6.55;;;4.55;;
77430;SDS011;66498;48.564;19.272;2023-04-06T10:30:02;7.40;;;4.00;;
77430;SDS011;66498;48.564;19.272;2023-04-06T10:32:36;4.97;;;3.70;;
77430;SDS011;66498;48.564;19.272;2023-04-06T10:35:06;5.95;;;3.60;;
77430;SDS011;66498;48.564;19.272;2023-04-06T10:37:45;4.85;;;3.40;;
77430;SDS011;66498;48.564;19.272;2023-04-06T10:40:22;4.70;;;2.90;;
77430;SDS011;66498;48.564;19.272;2023-04-06T10:42:49;4.80;;;3.33;;
77430;SDS011;66498;48.564;19.272;2023-04-06T10:45:24;5.65;;;3.38;;
77430;SDS011;66498;48.564;19.272;2023-04-06T10:47:54;4.83;;;3.30;;
77430;SDS011;66498;48.564;19.272;2023-04-06T10:50:21;7.95;;;3.40;;
77430;SDS011;66498;48.564;19.272;2023-04-06T10:52:47;8.90;;;4.38;;
77430;SDS011;66498;48.564;19.272;2023-04-06T10:55:24;6.38;;;3.63;;
77430;SDS011;66498;48.564;19.272;2023-04-06T10:57:52;6.97;;;4.28;;
77430;SDS011;66498;48.564;19.272;2023-04-06T11:00:17;8.40;;;4.47;;
77430;SDS011;66498;48.564;19.272;2023-04-06T11:02:44;6.78;;;3.95;;
77430;SDS011;66498;48.564;19.272;2023-04-06T11:05:11;7.75;;;3.83;;
77430;SDS011;66498;48.564;19.272;2023-04-06T11:07:38;10.82;;;4.30;;
77430;SDS011;66498;48.564;19.272;2023-04-06T11:10:05;6.93;;;3.92;;
77430;SDS011;66498;48.564;19.272;2023-04-06T11:12:32;9.25;;;5.05;;
77430;SDS011;66498;48.564;19.272;2023-04-06T11:14:59;9.88;;;4.90;;
77430;SDS011;66498;48.564;19.272;2023-04-06T11:17:33;8.70;;;4.10;;
77430;SDS011;66498;48.564;19.272;2023-04-06T11:20:03;8.40;;;4.50;;
77430;SDS011;66498;48.564;19.272;2023-04-06T11:22:34;10.20;;;4.30;;
77430;SDS011;66498;48.564;19.272;2023-04-06T11:25:07;4.72;;;2.85;;
77430;SDS011;66498;48.564;19.272;2023-04-06T11:27:33;4.80;;;3.00;;
77430;SDS011;66498;48.564;19.272;2023-04-06T11:30:00;5.38;;;3.80;;
77430;SDS011;66498;48.564;19.272;2023-04-06T11:32:27;8.90;;;4.10;;
77430;SDS011;66498;48.564;19.272;2023-04-06T11:34:53;5.63;;;3.67;;
77430;SDS011;66498;48.564;19.272;2023-04-06T11:37:19;6.15;;;4.18;;
77430;SDS011;66498;48.564;19.272;2023-04-06T11:39:48;6.80;;;4.72;;
77430;SDS011;66498;48.564;19.272;2023-04-06T11:42:25;6.60;;;3.53;;
77430;SDS011;66498;48.564;19.272;2023-04-06T11:44:53;6.38;;;3.53;;
77430;SDS011;66498;48.564;19.272;2023-04-06T11:47:20;10.52;;;4.55;;
77430;SDS011;66498;48.564;19.272;2023-04-06T11:49:52;5.95;;;4.22;;
77430;SDS011;66498;48.564;19.272;2023-04-06T11:52:22;8.32;;;5.13;;
77430;SDS011;66498;48.564;19.272;2023-04-06T11:54:50;5.85;;;3.90;;
77430;SDS011;66498;48.564;19.272;2023-04-06T11:57:18;7.03;;;4.75;;
77430;SDS011;66498;48.564;19.272;2023-04-06T11:59:45;7.45;;;4.72;;
77430;SDS011;66498;48.564;19.272;2023-04-06T12:02:11;10.15;;;5.40;;
77430;SDS011;66498;48.564;19.272;2023-04-06T12:04:37;8.10;;;5.03;;
77430;SDS011;66498;48.564;19.272;2023-04-06T12:07:03;7.82;;;4.65;;
77430;SDS011;66498;48.564;19.272;2023-04-06T12:09:29;8.38;;;5.90;;
77430;SDS011;66498;48.564;19.272;2023-04-06T12:11:55;8.88;;;5.80;;
77430;SDS011;66498;48.564;19.272;2023-04-06T12:14:21;10.73;;;6.65;;
77430;SDS011;66498;48.564;19.272;2023-04-06T12:16:47;10.45;;;6.57;;
77430;SDS011;66498;48.564;19.272;2023-04-06T12:19:13;8.50;;;5.63;;
77430;SDS011;66498;48.564;19.272;2023-04-06T12:21:38;9.20;;;5.55;;
77430;SDS011;66498;48.564;19.272;2023-04-06T12:24:05;10.35;;;6.78;;
77430;SDS011;66498;48.564;19.272;2023-04-06T12:26:31;8.80;;;5.10;;
77430;SDS011;66498;48.564;19.272;2023-04-06T12:29:01;9.73;;;5.88;;
77430;SDS011;66498;48.564;19.272;2023-04-06T12:31:31;10.80;;;6.32;;
77430;SDS011;66498;48.564;19.272;2023-04-06T12:33:58;10.77;;;7.10;;
77430;SDS011;66498;48.564;19.272;2023-04-06T12:36:24;11.85;;;7.13;;
77430;SDS011;66498;48.564;19.272;2023-04-06T12:38:50;9.07;;;5.70;;
77430;SDS011;66498;48.564;19.272;2023-04-06T12:41:19;11.38;;;6.68;;
77430;SDS011;66498;48.564;19.272;2023-04-06T12:43:45;12.07;;;6.63;;
77430;SDS011;66498;48.564;19.272;2023-04-06T12:46:11;9.95;;;5.82;;
77430;SDS011;66498;48.564;19.272;2023-04-06T12:48:38;8.48;;;5.57;;
77430;SDS011;66498;48.564;19.272;2023-04-06T12:51:04;8.52;;;5.05;;
77430;SDS011;66498;48.564;19.272;2023-04-06T12:53:31;9.57;;;5.88;;
77430;SDS011;66498;48.564;19.272;2023-04-06T12:55:57;10.20;;;6.05;;
77430;SDS011;66498;48.564;19.272;2023-04-06T12:58:24;10.30;;;6.13;;
77430;SDS011;66498;48.564;19.272;2023-04-06T13:00:54;8.00;;;5.00;;
77430;SDS011;66498;48.564;19.272;2023-04-06T13:03:21;9.95;;;6.80;;
77430;SDS011;66498;48.564;19.272;2023-04-06T13:05:47;12.50;;;6.82;;
77430;SDS011;66498;48.564;19.272;2023-04-06T13:08:15;8.43;;;5.75;;
77430;SDS011;66498;48.564;19.272;2023-04-06T13:10:46;9.60;;;6.78;;
77430;SDS011;66498;48.564;19.272;2023-04-06T13:13:13;10.23;;;6.47;;
77430;SDS011;66498;48.564;19.272;2023-04-06T13:15:40;9.95;;;6.30;;
77430;SDS011;66498;48.564;19.272;2023-04-06T13:18:06;12.50;;;5.63;;
77430;SDS011;66498;48.564;19.272;2023-04-06T13:20:32;10.75;;;6.05;;
77430;SDS011;66498;48.564;19.272;2023-04-06T13:22:58;11.95;;;7.30;;
77430;SDS011;66498;48.564;19.272;2023-04-06T13:25:23;7.82;;;5.03;;
77430;SDS011;66498;48.564;19.272;2023-04-06T13:27:49;11.82;;;6.95;;
77430;SDS011;66498;48.564;19.272;2023-04-06T13:30:15;12.00;;;6.50;;
77430;SDS011;66498;48.564;19.272;2023-04-06T13:32:41;8.77;;;5.30;;
77430;SDS011;66498;48.564;19.272;2023-04-06T13:35:07;9.77;;;6.63;;
77430;SDS011;66498;48.564;19.272;2023-04-06T13:37:34;10.65;;;6.57;;
77430;SDS011;66498;48.564;19.272;2023-04-06T13:40:01;12.43;;;4.88;;
77430;SDS011;66498;48.564;19.272;2023-04-06T13:42:27;8.95;;;5.65;;
77430;SDS011;66498;48.564;19.272;2023-04-06T13:44:53;8.40;;;5.28;;
77430;SDS011;66498;48.564;19.272;2023-04-06T13:47:19;9.57;;;5.57;;
77430;SDS011;66498;48.564;19.272;2023-04-06T13:49:51;8.40;;;4.88;;
77430;SDS011;66498;48.564;19.272;2023-04-06T13:52:18;11.23;;;6.00;;
77430;SDS011;66498;48.564;19.272;2023-04-06T13:54:44;15.60;;;9.02;;
77430;SDS011;66498;48.564;19.272;2023-04-06T13:57:10;9.05;;;5.68;;
77430;SDS011;66498;48.564;19.272;2023-04-06T13:59:36;9.57;;;6.63;;
77430;SDS011;66498;48.564;19.272;2023-04-06T14:02:03;11.35;;;7.45;;
77430;SDS011;66498;48.564;19.272;2023-04-06T14:04:31;11.38;;;6.97;;
77430;SDS011;66498;48.564;19.272;2023-04-06T14:06:57;14.35;;;7.78;;
77430;SDS011;66498;48.564;19.272;2023-04-06T14:09:24;9.15;;;6.40;;
77430;SDS011;66498;48.564;19.272;2023-04-06T14:11:50;9.18;;;6.28;;
77430;SDS011;66498;48.564;19.272;2023-04-06T14:14:16;14.13;;;7.82;;
77430;SDS011;66498;48.564;19.272;2023-04-06T14:16:42;10.98;;;7.35;;